sensor_id;sensor_type;location;lat;lon;timestamp;P1;P2;P0
61879;PMS7003;47817;52.798;27.544;2023-08-01T00:00:59;3.8;3.4;3
61879;PMS7003;47817;52.798;27.544;2023-08-01T00:05:59;4.2;4;3.2
61879;PMS7003;47817;52.798;27.544;2023-08-01T00:10:13;4.6;3.8;3
61879;PMS7003;47817;52.798;27.544;2023-08-01T00:15:49;5;3.2;2.4
61879;PMS7003;47817;52.798;27.544;2023-08-01T00:20:51;4.6;4;3.2
61879;PMS7003;47817;52.798;27.544;2023-08-01T00:25:31;5.5;4.5;4
61879;PMS7003;47817;52.798;27.544;2023-08-01T00:30:43;5.6;4.4;3.8
61879;PMS7003;47817;52.798;27.544;2023-08-01T00:35:59;5.4;4.6;3.4
61879;PMS7003;47817;52.798;27.544;2023-08-01T00:40:17;5;4;3.4
61879;PMS7003;47817;52.798;27.544;2023-08-01T00:45:33;5.2;4;3.4
61879;PMS7003;47817;52.798;27.544;2023-08-01T00:51:01;4.4;3.8;3.2
61879;PMS7003;47817;52.798;27.544;2023-08-01T00:55:27;4.8;4;3.4
61879;PMS7003;47817;52.798;27.544;2023-08-01T01:00:43;4.5;3.8;3.3
61879;PMS7003;47817;52.798;27.544;2023-08-01T01:05:23;5;4.6;3.8
61879;PMS7003;47817;52.798;27.544;2023-08-01T01:10:13;4.2;3.2;2.8
61879;PMS7003;47817;52.798;27.544;2023-08-01T01:15:31;4.2;3.6;2.8
61879;PMS7003;47817;52.798;27.544;2023-08-01T01:20:13;5.4;3.4;3
61879;PMS7003;47817;52.798;27.544;2023-08-01T01:25:27;5.2;3.6;3
61879;PMS7003;47817;52.798;27.544;2023-08-01T01:30:39;4.3;3.8;3
61879;PMS7003;47817;52.798;27.544;2023-08-01T01:35:21;4.4;3.8;2.8
61879;PMS7003;47817;52.798;27.544;2023-08-01T01:40:23;4.8;3.4;3.2
61879;PMS7003;47817;52.798;27.544;2023-08-01T01:45:33;5;3.6;3.4
61879;PMS7003;47817;52.798;27.544;2023-08-01T01:50:55;3.8;2.8;2.4
61879;PMS7003;47817;52.798;27.544;2023-08-01T01:55:55;4.8;3.4;2.4
61879;PMS7003;47817;52.798;27.544;2023-08-01T02:00:31;4.2;3.8;3
61879;PMS7003;47817;52.798;27.544;2023-08-01T02:05:19;4.8;3.4;2.8
61879;PMS7003;47817;52.798;27.544;2023-08-01T02:10:57;4;3.4;2.6
61879;PMS7003;47817;52.798;27.544;2023-08-01T02:15:17;3.4;3;2.2
61879;PMS7003;47817;52.798;27.544;2023-08-01T02:20:14;4.2;3.2;2.4
61879;PMS7003;47817;52.798;27.544;2023-08-01T02:25:53;3.8;2.8;2.8
61879;PMS7003;47817;52.798;27.544;2023-08-01T02:30:57;4.3;4;2.8
61879;PMS7003;47817;52.798;27.544;2023-08-01T02:35:57;4.2;3.8;3.2
61879;PMS7003;47817;52.798;27.544;2023-08-01T02:40:23;4.6;3.6;3.2
61879;PMS7003;47817;52.798;27.544;2023-08-01T02:45:57;4.6;3.4;3
61879;PMS7003;47817;52.798;27.544;2023-08-01T02:50:35;5;3.4;3.2
61879;PMS7003;47817;52.798;27.544;2023-08-01T02:55:33;4.5;4.3;3.3
61879;PMS7003;47817;52.798;27.544;2023-08-01T03:00:37;5.4;4.2;3.6
61879;PMS7003;47817;52.798;27.544;2023-08-01T03:05:39;3.6;3.6;3
61879;PMS7003;47817;52.798;27.544;2023-08-01T03:10:19;5;3.8;3.4
61879;PMS7003;47817;52.798;27.544;2023-08-01T03:15:41;4.8;3.8;3.4
61879;PMS7003;47817;52.798;27.544;2023-08-01T03:20:57;4.4;3.2;2.8
61879;PMS7003;47817;52.798;27.544;2023-08-01T03:25:13;4.8;4.2;3.4
61879;PMS7003;47817;52.798;27.544;2023-08-01T03:30:53;4.4;3.4;3
61879;PMS7003;47817;52.798;27.544;2023-08-01T03:35:33;5;3.8;2.8
61879;PMS7003;47817;52.798;27.544;2023-08-01T03:40:57;5.2;4.2;3.6
61879;PMS7003;47817;52.798;27.544;2023-08-01T03:45:49;7.6;6.6;5.4
61879;PMS7003;47817;52.798;27.544;2023-08-01T03:50:26;5.8;4.8;4.4
61879;PMS7003;47817;52.798;27.544;2023-08-01T03:55:13;7.4;5.8;4.6
61879;PMS7003;47817;52.798;27.544;2023-08-01T04:00:27;7.4;5;4.4
61879;PMS7003;47817;52.798;27.544;2023-08-01T04:05:57;6;5.4;4.6
61879;PMS7003;47817;52.798;27.544;2023-08-01T04:10:33;7.2;6.2;5
61879;PMS7003;47817;52.798;27.544;2023-08-01T04:15:13;6.8;5.6;4.2
61879;PMS7003;47817;52.798;27.544;2023-08-01T04:20:57;7.2;5.2;4.4
61879;PMS7003;47817;52.798;27.544;2023-08-01T04:25:57;6.5;5.8;5
61879;PMS7003;47817;52.798;27.544;2023-08-01T04:30:17;8;6;5
61879;PMS7003;47817;52.798;27.544;2023-08-01T04:35:17;8.2;7;5.4
61879;PMS7003;47817;52.798;27.544;2023-08-01T04:40:49;10.8;8.2;7.2
61879;PMS7003;47817;52.798;27.544;2023-08-01T04:45:49;8;6.4;5.4
61879;PMS7003;47817;52.798;27.544;2023-08-01T04:50:31;8.5;7;6.3
61879;PMS7003;47817;52.798;27.544;2023-08-01T04:55:23;9.8;8.6;7.2
61879;PMS7003;47817;52.798;27.544;2023-08-01T05:00:17;10;8.6;7.6
61879;PMS7003;47817;52.798;27.544;2023-08-01T05:05:13;11;8.2;6.8
61879;PMS7003;47817;52.798;27.544;2023-08-01T05:10:33;8;7;6
61879;PMS7003;47817;52.798;27.544;2023-08-01T05:15:57;8.2;7.2;6
61879;PMS7003;47817;52.798;27.544;2023-08-01T05:20:39;8.2;7.6;6.6
61879;PMS7003;47817;52.798;27.544;2023-08-01T05:25:57;8.4;7.2;6.4
61879;PMS7003;47817;52.798;27.544;2023-08-01T05:30:23;7.8;7.4;6.8
61879;PMS7003;47817;52.798;27.544;2023-08-01T05:35:17;9.6;8.6;7
61879;PMS7003;47817;52.798;27.544;2023-08-01T05:40:25;9.3;8;7
61879;PMS7003;47817;52.798;27.544;2023-08-01T05:45:21;12;10.4;9
61879;PMS7003;47817;52.798;27.544;2023-08-01T05:50:32;10;9.2;7.6
61879;PMS7003;47817;52.798;27.544;2023-08-01T05:55:39;11.4;10.2;8.4
61879;PMS7003;47817;52.798;27.544;2023-08-01T06:00:39;9;7.8;6.6
61879;PMS7003;47817;52.798;27.544;2023-08-01T06:05:39;9.2;8.4;6.4
61879;PMS7003;47817;52.798;27.544;2023-08-01T06:10:17;8;6.6;5.8
61879;PMS7003;47817;52.798;27.544;2023-08-01T06:15:57;9.4;7.4;5.8
61879;PMS7003;47817;52.798;27.544;2023-08-01T06:20:57;8.3;7;5.5
61879;PMS7003;47817;52.798;27.544;2023-08-01T06:25:49;10.2;8.8;7.2
61879;PMS7003;47817;52.798;27.544;2023-08-01T06:30:39;14.6;12;9.8
61879;PMS7003;47817;52.798;27.544;2023-08-01T06:35:57;10.6;8.6;7.4
61879;PMS7003;47817;52.798;27.544;2023-08-01T06:40:27;8.4;7;6.4
61879;PMS7003;47817;52.798;27.544;2023-08-01T06:45:13;8.2;6.6;5.8
61879;PMS7003;47817;52.798;27.544;2023-08-01T06:50:35;6.6;6.2;5
61879;PMS7003;47817;52.798;27.544;2023-08-01T06:55:57;6.5;6.5;5.5
61879;PMS7003;47817;52.798;27.544;2023-08-01T07:00:57;6.6;6;5.2
61879;PMS7003;47817;52.798;27.544;2023-08-01T07:05:14;6.4;5.2;4.4
61879;PMS7003;47817;52.798;27.544;2023-08-01T07:10:58;6.6;5.8;4.8
61879;PMS7003;47817;52.798;27.544;2023-08-01T07:15:14;6.4;5.6;4.6
61879;PMS7003;47817;52.798;27.544;2023-08-01T07:20:33;7.6;6;5.2
61879;PMS7003;47817;52.798;27.544;2023-08-01T07:25:41;6.2;5;4.4
61879;PMS7003;47817;52.798;27.544;2023-08-01T07:30:39;5.4;5;4.6
61879;PMS7003;47817;52.798;27.544;2023-08-01T07:35:47;5.8;5.2;4.6
61879;PMS7003;47817;52.798;27.544;2023-08-01T07:40:15;6.4;6.2;5
61879;PMS7003;47817;52.798;27.544;2023-08-01T07:45:55;10;8.8;7.8
61879;PMS7003;47817;52.798;27.544;2023-08-01T07:50:17;6.8;6.6;5
61879;PMS7003;47817;52.798;27.544;2023-08-01T07:55:57;5.6;5;4.4
61879;PMS7003;47817;52.798;27.544;2023-08-01T08:00:34;4.8;4.2;3.4
61879;PMS7003;47817;52.798;27.544;2023-08-01T08:05:58;5.2;4.6;4.2
61879;PMS7003;47817;52.798;27.544;2023-08-01T08:10:29;6.6;5.8;5
61879;PMS7003;47817;52.798;27.544;2023-08-01T08:15:19;5.8;5.5;5
61879;PMS7003;47817;52.798;27.544;2023-08-01T08:20:13;5.4;5.2;4.6
61879;PMS7003;47817;52.798;27.544;2023-08-01T08:25:14;6.2;5.8;4.8
61879;PMS7003;47817;52.798;27.544;2023-08-01T08:30:58;7.4;6.2;5.2
61879;PMS7003;47817;52.798;27.544;2023-08-01T08:35:14;6.6;6;5
61879;PMS7003;47817;52.798;27.544;2023-08-01T08:40:32;7.2;6.2;5.4
61879;PMS7003;47817;52.798;27.544;2023-08-01T08:45:14;6.4;5.6;4.8
61879;PMS7003;47817;52.798;27.544;2023-08-01T08:50:58;5.3;4;3.8
61879;PMS7003;47817;52.798;27.544;2023-08-01T08:55:13;7;5.2;4.6
61879;PMS7003;47817;52.798;27.544;2023-08-01T09:00:34;6;5.2;4.4
61879;PMS7003;47817;52.798;27.544;2023-08-01T09:06:00;4.2;3.8;3.6
61879;PMS7003;47817;52.798;27.544;2023-08-01T09:10:48;4.8;4.2;3.4
61879;PMS7003;47817;52.798;27.544;2023-08-01T09:15:14;4.6;4;3.4
61879;PMS7003;47817;52.798;27.544;2023-08-01T09:20:58;5;4.6;3.2
61879;PMS7003;47817;52.798;27.544;2023-08-01T09:25:20;4.8;4.2;3.8
61879;PMS7003;47817;52.798;27.544;2023-08-01T09:30:30;5;4.4;4.2
61879;PMS7003;47817;52.798;27.544;2023-08-01T09:35:14;4.8;3.8;3.4
61879;PMS7003;47817;52.798;27.544;2023-08-01T09:40:58;4.2;3.6;3.4
61879;PMS7003;47817;52.798;27.544;2023-08-01T09:45:58;4.4;3.8;3.2
61879;PMS7003;47817;52.798;27.544;2023-08-01T09:50:19;3.8;3.8;3.5
61879;PMS7003;47817;52.798;27.544;2023-08-01T09:55:25;5;4.2;3.6
61879;PMS7003;47817;52.798;27.544;2023-08-01T10:00:24;4.4;3.6;2.8
61879;PMS7003;47817;52.798;27.544;2023-08-01T10:05:14;4.4;3.6;3.4
61879;PMS7003;47817;52.798;27.544;2023-08-01T10:10:34;3.4;3.2;2.6
61879;PMS7003;47817;52.798;27.544;2023-08-01T10:15:36;9.6;8.6;6.4
61879;PMS7003;47817;52.798;27.544;2023-08-01T10:20:40;7.3;5.5;4.8
61879;PMS7003;47817;52.798;27.544;2023-08-01T10:25:16;4.6;4.2;3.6
61879;PMS7003;47817;52.798;27.544;2023-08-01T10:30:25;4.6;3.8;3.4
61879;PMS7003;47817;52.798;27.544;2023-08-01T10:35:18;4.2;3.4;2.8
61879;PMS7003;47817;52.798;27.544;2023-08-01T10:40:56;3.6;3.2;2.4
61879;PMS7003;47817;52.798;27.544;2023-08-01T10:46:03;3.8;3.6;3.2
61879;PMS7003;47817;52.798;27.544;2023-08-01T10:50:30;4.4;3.2;2.6
61879;PMS7003;47817;52.798;27.544;2023-08-01T10:55:41;4;3.8;3.3
61879;PMS7003;47817;52.798;27.544;2023-08-01T11:00:58;4.6;3.4;3.2
61879;PMS7003;47817;52.798;27.544;2023-08-01T11:05:18;4;3.6;3.2
61879;PMS7003;47817;52.798;27.544;2023-08-01T11:10:24;3.2;2.4;2
61879;PMS7003;47817;52.798;27.544;2023-08-01T11:15:42;3.8;3.3;2.5
61879;PMS7003;47817;52.798;27.544;2023-08-01T11:20:58;2.6;2.2;2.2
61879;PMS7003;47817;52.798;27.544;2023-08-01T11:25:58;4.8;4.2;3.2
61879;PMS7003;47817;52.798;27.544;2023-08-01T11:30:30;3.8;3.6;3
61879;PMS7003;47817;52.798;27.544;2023-08-01T11:35:58;2.6;2.4;2.4
61879;PMS7003;47817;52.798;27.544;2023-08-01T11:40:50;2.5;2.3;2.3
61879;PMS7003;47817;52.798;27.544;2023-08-01T11:45:14;2.6;2.6;2.2
61879;PMS7003;47817;52.798;27.544;2023-08-01T11:50:20;4;3.8;3.6
61879;PMS7003;47817;52.798;27.544;2023-08-01T11:55:39;4.4;3.4;2.8
61879;PMS7003;47817;52.798;27.544;2023-08-01T12:00:50;4.2;3.6;3
61879;PMS7003;47817;52.798;27.544;2023-08-01T12:05:42;4.2;3.2;2.8
61879;PMS7003;47817;52.798;27.544;2023-08-01T12:10:58;3;3;2.4
61879;PMS7003;47817;52.798;27.544;2023-08-01T12:15:14;4.4;3.6;3
61879;PMS7003;47817;52.798;27.544;2023-08-01T12:20:58;4;2.8;2.3
61879;PMS7003;47817;52.798;27.544;2023-08-01T12:25:30;3.4;3;2.2
61879;PMS7003;47817;52.798;27.544;2023-08-01T12:30:58;3.2;2.8;2.6
61879;PMS7003;47817;52.798;27.544;2023-08-01T12:35:50;3.8;3;2.4
61879;PMS7003;47817;52.798;27.544;2023-08-01T12:40:58;3.4;3;2.4
61879;PMS7003;47817;52.798;27.544;2023-08-01T12:45:14;4.2;3.8;3
61879;PMS7003;47817;52.798;27.544;2023-08-01T12:50:14;3.2;3.2;2.6
61879;PMS7003;47817;52.798;27.544;2023-08-01T12:55:50;2.8;2.8;2.6
61879;PMS7003;47817;52.798;27.544;2023-08-01T13:00:50;2.5;2.5;2
61879;PMS7003;47817;52.798;27.544;2023-08-01T13:05:33;4.2;3.6;2.6
61879;PMS7003;47817;52.798;27.544;2023-08-01T13:10:14;2.4;2.2;1.8
61879;PMS7003;47817;52.798;27.544;2023-08-01T13:15:58;4;3.4;3
61879;PMS7003;47817;52.798;27.544;2023-08-01T13:20:18;4.4;3.6;3.4
61879;PMS7003;47817;52.798;27.544;2023-08-01T13:25:30;3;2.4;2.4
61879;PMS7003;47817;52.798;27.544;2023-08-01T13:30:58;2.2;2;1.8
61879;PMS7003;47817;52.798;27.544;2023-08-01T13:35:50;3.2;2.4;2.4
61879;PMS7003;47817;52.798;27.544;2023-08-01T13:40:32;4.6;3.2;2.6
61879;PMS7003;47817;52.798;27.544;2023-08-01T13:45:24;4;3.8;3.2
61879;PMS7003;47817;52.798;27.544;2023-08-01T13:50:14;3.5;3.5;3
61879;PMS7003;47817;52.798;27.544;2023-08-01T13:55:18;2.8;2.4;2.4
61879;PMS7003;47817;52.798;27.544;2023-08-01T14:00:34;3.2;3;3
61879;PMS7003;47817;52.798;27.544;2023-08-01T14:06:03;3;2.2;2
61879;PMS7003;47817;52.798;27.544;2023-08-01T14:10:40;3;2.8;2.4
61879;PMS7003;47817;52.798;27.544;2023-08-01T14:15:58;2.4;2.4;2.4
61879;PMS7003;47817;52.798;27.544;2023-08-01T14:20:20;3;2.3;2.3
61879;PMS7003;47817;52.798;27.544;2023-08-01T14:25:20;3.4;3.2;3
61879;PMS7003;47817;52.798;27.544;2023-08-01T14:30:16;3.2;3.2;3.2
61879;PMS7003;47817;52.798;27.544;2023-08-01T14:35:26;3.2;2.8;2.6
61879;PMS7003;47817;52.798;27.544;2023-08-01T14:40:30;3.2;3.2;2.8
61879;PMS7003;47817;52.798;27.544;2023-08-01T14:45:39;2.4;2;1.8
61879;PMS7003;47817;52.798;27.544;2023-08-01T14:50:38;3.4;3;2.8
61879;PMS7003;47817;52.798;27.544;2023-08-01T14:55:12;2.6;2;1.8
61879;PMS7003;47817;52.798;27.544;2023-08-01T15:00:12;2.4;2.2;1.6
61879;PMS7003;47817;52.798;27.544;2023-08-01T15:05:56;3.5;3.3;3
61879;PMS7003;47817;52.798;27.544;2023-08-01T15:10:56;2.6;2.4;2.2
61879;PMS7003;47817;52.798;27.544;2023-08-01T15:15:12;2;1.6;1.2
61879;PMS7003;47817;52.798;27.544;2023-08-01T15:20:14;2.8;2.6;2.2
61879;PMS7003;47817;52.798;27.544;2023-08-01T15:25:56;3;2.4;2
61879;PMS7003;47817;52.798;27.544;2023-08-01T15:30:48;2.6;2.4;1.6
61879;PMS7003;47817;52.798;27.544;2023-08-01T15:35:16;2.6;2.2;2.2
61879;PMS7003;47817;52.798;27.544;2023-08-01T15:40:40;2;2;1.8
61879;PMS7003;47817;52.798;27.544;2023-08-01T15:45:54;2.4;2.2;2.2
61879;PMS7003;47817;52.798;27.544;2023-08-01T15:50:56;2.6;2;2
61879;PMS7003;47817;52.798;27.544;2023-08-01T15:55:22;3.3;2.5;2.3
61879;PMS7003;47817;52.798;27.544;2023-08-01T16:00:56;4.4;4.2;3.6
61879;PMS7003;47817;52.798;27.544;2023-08-01T16:05:26;3.6;3.4;3
61879;PMS7003;47817;52.798;27.544;2023-08-01T16:10:26;3.6;3.2;2.8
61879;PMS7003;47817;52.798;27.544;2023-08-01T16:15:34;3.5;3.5;3
61879;PMS7003;47817;52.798;27.544;2023-08-01T16:20:38;3.8;3.8;3.4
61879;PMS7003;47817;52.798;27.544;2023-08-01T16:25:44;4;3;3
61879;PMS7003;47817;52.798;27.544;2023-08-01T16:30:42;3;3;2.8
61879;PMS7003;47817;52.798;27.544;2023-08-01T16:35:56;2.8;2.6;2.4
61879;PMS7003;47817;52.798;27.544;2023-08-01T16:40:12;3;2.8;2.4
61879;PMS7003;47817;52.798;27.544;2023-08-01T16:45:56;6;4.6;4
61879;PMS7003;47817;52.798;27.544;2023-08-01T16:50:32;3.2;3;2.8
61879;PMS7003;47817;52.798;27.544;2023-08-01T16:55:56;4.4;3.2;2.4
61879;PMS7003;47817;52.798;27.544;2023-08-01T17:00:46;3.8;2.6;2.6
61879;PMS7003;47817;52.798;27.544;2023-08-01T17:05:42;3.8;2.6;2.4
61879;PMS7003;47817;52.798;27.544;2023-08-01T17:10:12;6.8;6;5
61879;PMS7003;47817;52.798;27.544;2023-08-01T17:15:12;5;4.8;3.4
61879;PMS7003;47817;52.798;27.544;2023-08-01T17:20:56;4.8;4.2;3.6
61879;PMS7003;47817;52.798;27.544;2023-08-01T17:25:46;3.6;3.2;2.8
61879;PMS7003;47817;52.798;27.544;2023-08-01T17:30:28;4.4;4.2;3.8
61879;PMS7003;47817;52.798;27.544;2023-08-01T17:35:12;5.4;4.4;3.8
61879;PMS7003;47817;52.798;27.544;2023-08-01T17:40:56;5.8;4.8;4
61879;PMS7003;47817;52.798;27.544;2023-08-01T17:45:46;5;5;4.4
61879;PMS7003;47817;52.798;27.544;2023-08-01T17:50:12;4.5;4;3.5
61879;PMS7003;47817;52.798;27.544;2023-08-01T17:55:56;5.4;4;3.2
61879;PMS7003;47817;52.798;27.544;2023-08-01T18:00:46;4.4;4.4;3.8
61879;PMS7003;47817;52.798;27.544;2023-08-01T18:05:28;4.4;3.6;3.2
61879;PMS7003;47817;52.798;27.544;2023-08-01T18:10:12;5.2;4.4;3.4
61879;PMS7003;47817;52.798;27.544;2023-08-01T18:15:16;4.6;4;3.4
61879;PMS7003;47817;52.798;27.544;2023-08-01T18:20:12;4.2;3.6;3.2
61879;PMS7003;47817;52.798;27.544;2023-08-01T18:25:30;5;3.8;3.3
61879;PMS7003;47817;52.798;27.544;2023-08-01T18:30:56;5.4;4.6;4
61879;PMS7003;47817;52.798;27.544;2023-08-01T18:35:22;5;4.6;3.8
61879;PMS7003;47817;52.798;27.544;2023-08-01T18:40:56;6.2;4.4;3.8
61879;PMS7003;47817;52.798;27.544;2023-08-01T18:45:12;6.8;5.8;4.6
61879;PMS7003;47817;52.798;27.544;2023-08-01T18:50:16;10.4;9;6.6
61879;PMS7003;47817;52.798;27.544;2023-08-01T18:55:30;8.4;7.6;5.4
61879;PMS7003;47817;52.798;27.544;2023-08-01T19:00:32;6.8;6.2;5.2
61879;PMS7003;47817;52.798;27.544;2023-08-01T19:05:30;7.6;6.2;5.6
61879;PMS7003;47817;52.798;27.544;2023-08-01T19:10:40;8.2;7;6
61879;PMS7003;47817;52.798;27.544;2023-08-01T19:15:40;7.3;7.3;5.8
61879;PMS7003;47817;52.798;27.544;2023-08-01T19:20:24;8.4;7.4;5.8
61879;PMS7003;47817;52.798;27.544;2023-08-01T19:25:24;8.4;7.2;5.8
61879;PMS7003;47817;52.798;27.544;2023-08-01T19:30:58;9;6.4;5.2
61879;PMS7003;47817;52.798;27.544;2023-08-01T19:35:58;6.2;5.8;5.2
61879;PMS7003;47817;52.798;27.544;2023-08-01T19:40:30;7;5.2;4.2
61879;PMS7003;47817;52.798;27.544;2023-08-01T19:45:48;6;5;4.5
61879;PMS7003;47817;52.798;27.544;2023-08-01T19:50:58;6.2;5.8;4.8
61879;PMS7003;47817;52.798;27.544;2023-08-01T19:55:14;6.8;5.8;4.8
61879;PMS7003;47817;52.798;27.544;2023-08-01T20:00:12;5.2;5.2;4.6
61879;PMS7003;47817;52.798;27.544;2023-08-01T20:05:55;5.4;5.4;4.4
61879;PMS7003;47817;52.798;27.544;2023-08-01T20:10:58;7;5.2;4
61879;PMS7003;47817;52.798;27.544;2023-08-01T20:15:58;6.5;6.3;5
61879;PMS7003;47817;52.798;27.544;2023-08-01T20:20:24;6;5.6;4.6
61879;PMS7003;47817;52.798;27.544;2023-08-01T20:25:58;7.2;5.4;4.6
61879;PMS7003;47817;52.798;27.544;2023-08-01T20:30:12;6;5.2;4.6
61879;PMS7003;47817;52.798;27.544;2023-08-01T20:35:16;6.4;5.2;4.4
61879;PMS7003;47817;52.798;27.544;2023-08-01T20:40:40;8;6.6;5.4
61879;PMS7003;47817;52.798;27.544;2023-08-01T20:45:40;6.8;5.8;5.2
61879;PMS7003;47817;52.798;27.544;2023-08-01T20:50:46;7;6.2;4.8
61879;PMS7003;47817;52.798;27.544;2023-08-01T20:55:40;5.8;5.2;4.8
61879;PMS7003;47817;52.798;27.544;2023-08-01T21:00:58;6.6;5.2;4.2
61879;PMS7003;47817;52.798;27.544;2023-08-01T21:05:16;4.8;4;3.4
61879;PMS7003;47817;52.798;27.544;2023-08-01T21:10:56;4.6;4.6;4
61879;PMS7003;47817;52.798;27.544;2023-08-01T21:15:32;5.5;5.3;4.5
61879;PMS7003;47817;52.798;27.544;2023-08-01T21:20:58;5.8;5.4;4.4
61879;PMS7003;47817;52.798;27.544;2023-08-01T21:25:48;5.4;4.6;3.6
61879;PMS7003;47817;52.798;27.544;2023-08-01T21:30:43;6.4;5.2;4.4
61879;PMS7003;47817;52.798;27.544;2023-08-01T21:35:32;5.2;4.6;4
61879;PMS7003;47817;52.798;27.544;2023-08-01T21:40:40;4.8;4.8;3.8
61879;PMS7003;47817;52.798;27.544;2023-08-01T21:45:56;4.6;4;3.2
61879;PMS7003;47817;52.798;27.544;2023-08-01T21:50:32;5;4.6;4.2
61879;PMS7003;47817;52.798;27.544;2023-08-01T21:55:40;5.6;5;4.2
61879;PMS7003;47817;52.798;27.544;2023-08-01T22:00:58;5.6;5.4;4.8
61879;PMS7003;47817;52.798;27.544;2023-08-01T22:05:42;5.8;5.2;4.6
61879;PMS7003;47817;52.798;27.544;2023-08-01T22:10:12;6.4;5.2;4.8
61879;PMS7003;47817;52.798;27.544;2023-08-01T22:15:12;6.6;5.8;4.6
61879;PMS7003;47817;52.798;27.544;2023-08-01T22:20:14;5.3;4.8;4.3
61879;PMS7003;47817;52.798;27.544;2023-08-01T22:25:48;6.4;5.4;4.6
61879;PMS7003;47817;52.798;27.544;2023-08-01T22:30:30;6.2;5.6;5.2
61879;PMS7003;47817;52.798;27.544;2023-08-01T22:35:16;5.8;5.6;4.8
61879;PMS7003;47817;52.798;27.544;2023-08-01T22:40:58;6.2;5.4;5.2
61879;PMS7003;47817;52.798;27.544;2023-08-01T22:45:16;7;6;5
61879;PMS7003;47817;52.798;27.544;2023-08-01T22:50:16;9;6.8;5.6
61879;PMS7003;47817;52.798;27.544;2023-08-01T22:55:58;7.4;6.8;5.8
61879;PMS7003;47817;52.798;27.544;2023-08-01T23:00:40;5.3;5;4.8
61879;PMS7003;47817;52.798;27.544;2023-08-01T23:05:12;8.4;7;5.8
61879;PMS7003;47817;52.798;27.544;2023-08-01T23:10:16;7.4;6.2;5.6
61879;PMS7003;47817;52.798;27.544;2023-08-01T23:15:42;7.4;6.4;5.8
61879;PMS7003;47817;52.798;27.544;2023-08-01T23:20:32;7.4;6.6;5.6
61879;PMS7003;47817;52.798;27.544;2023-08-01T23:25:12;7;6.3;6
61879;PMS7003;47817;52.798;27.544;2023-08-01T23:30:58;7;5.8;5.6
61879;PMS7003;47817;52.798;27.544;2023-08-01T23:35:32;6.2;5.6;5
61879;PMS7003;47817;52.798;27.544;2023-08-01T23:40:58;7.2;5.8;5.4
61879;PMS7003;47817;52.798;27.544;2023-08-01T23:45:12;6.8;6;5.2
61879;PMS7003;47817;52.798;27.544;2023-08-01T23:50:37;8.4;6.8;6
61879;PMS7003;47817;52.798;27.544;2023-08-01T23:55:30;7.8;6.8;5.6
